Weather observations for the past three days for
Stephens County Airport
Metric (Imperial)
Date Time (cdt) Wind (kph) Vis. (km) Weather Sky Cond. Temperature (ºC) Relative Humidity Wind Chill (°C) Heat Index (°C) Pressure Precipitation (cm)
Air Dwpt 6 hour altimeter (cm) sea level (mb) 1 hr 3 hr 6 hr
Max. Min.
06 01:35 N 7 8.05 Fair CLR 13 9.5 79% 75.87 0.0
06 01:15 N 9 8.05 Fair CLR 13.2 9.5 78% 75.84 0.0
06 00:55 N 7 11.27 Fair CLR 13.4 9.7 25.1 13.4 78% 75.82 0.0
06 00:35 NE 7 11.27 Fair CLR 13.6 9.8 78% 75.79 0.0
06 00:15 Calm 8.05 Fair CLR 14 9.8 76% 75.79 0.0
05 23:55 NE 7 11.27 Fair CLR 14.2 9.9 76% 75.79 0.0
05 23:35 NE 15 8.05 Fair CLR 14.6 9.8 73% 75.82 0.0
05 23:15 NE 17 11.27 Fair CLR 15.1 10.3 73% 75.82 0.0
05 22:55 NE 13 G 28 8.05 Fair CLR 15.5 10.2 71% 75.79 0.0
05 22:35 NE 17 G 30 11.27 Fair CLR 16.3 10.5 69% 75.79 0.0
05 22:15 NE 15 8.05 Fair CLR 17.7 10.9 65% 75.77 0.0
05 21:55 N 17 11.27 Fair CLR 18.6 11 61% 75.72 0.0
05 21:35 NE 11 11.27 Fair CLR 19.3 10.9 58% 75.69 0.0
05 21:15 N 13 11.27 Fair CLR 20 10.8 56% 75.67 0.0
05 20:55 N 11 8.05 Fair CLR 20.6 11 54% 75.62 0.0
05 20:35 N 13 11.27 Fair CLR 21.3 11.1 52% 75.59 0.0
05 20:15 NE 15 4.83 Fair CLR 22 11 50% 75.57 0.0
05 19:55 N 17 8.05 Fair CLR 22.6 11.2 49% 75.51 0.0
05 19:35 NE 17 G 26 6.44 Fair CLR 23.6 11.7 47% 75.51 0.0
05 19:15 NE 17 8.05 Fair CLR 24.5 12 46% 26 75.49 0.0
05 18:55 NE 13 6.44 Fair CLR 25.1 12.2 32.7 25.1 45% 26 75.44 0.0
05 18:35 NE 19 G 26 8.05 Fair CLR 25.6 12.5 44% 26 75.44 0.0
05 18:15 NE 17 8.05 Fair CLR 26.8 13.1 43% 27 75.46 0.0
05 17:55 NE 17 G 26 8.05 Fair CLR 27.5 13.1 41% 27 75.44 0.0
05 17:35 NE 15 11.27 Fair CLR 28.2 13.9 42% 28 75.41 0.0
05 17:15 N 15 G 28 8.05 Fair CLR 29.5 14.1 39% 29 75.39 0.0
05 16:55 Calm 8.05 Fair CLR 30.6 14.7 38% 30 75.41 0.0
05 16:35 Calm 11.27 Fair CLR 32.6 13.6 32% 32 75.39 0.0
05 16:15 Calm 8.05 Fair CLR 32.5 12.4 29% 31 75.39 0.0
05 15:55 NE 9 8.05 Fair CLR 31.7 11.4 29% 30 75.36 0.0
05 15:35 N 11 6.44 Fair CLR 31.7 10.6 27% 30 75.41 0.0
05 15:15 N 13 8.05 Fair CLR 31.5 10.1 27% 30 75.41 0.0
05 14:55 N 13 8.05 Fair CLR 31.5 9.7 26% 30 75.44 0.0
05 14:35 N 17 8.05 Fair CLR 32.2 10.8 27% 31 75.44 0.0
05 14:15 SW 11 8.05 Fair CLR 32.3 13.4 32% 31 75.44 0.0
05 13:55 W 9 8.05 Fair CLR 32.2 13.7 32% 31 75.44 0.0
05 13:35 NW 13 8.05 Fair CLR 32.2 14.4 34% 32 75.46 0.0
05 13:15 W 15 8.05 Fair CLR 31.8 15.2 37% 31 75.46 0.0
05 12:55 W 19 8.05 Fair CLR 31.1 15.3 31.1 21.6 38% 31 75.46 0.0
05 12:35 W 19 G 28 8.05 Fair CLR 30.3 15.2 40% 30 75.46 0.0
05 12:15 W 22 8.05 Fair CLR 30.1 16 43% 30 75.46 0.0
05 11:55 SW 20 G 28 11.27 Fair CLR 29.6 17.1 47% 30 75.46 0.0
05 11:35 SW 19 8.05 Fair CLR 28.2 16.7 50% 29 75.46 0.0
05 11:15 SW 20 8.05 Fair CLR 28 17 51% 29 75.44 0.0
05 10:55 SW 22 G 33 6.44 Fair CLR 28 16.9 51% 29 75.44 0.0
05 10:35 SW 20 G 28 8.05 Fair CLR 28.1 17.6 53% 29 75.44 0.0
05 10:15 SW 20 G 33 8.05 Fair CLR 27.2 17.7 56% 28 75.39 0.0
05 09:55 SW 26 G 35 11.27 Fair CLR 26.4 17.7 59% 27 75.39 0.0
05 09:35 SW 19 G 28 8.05 Fair CLR 25.6 18 63% 27 75.41 0.0
05 09:15 SW 20 8.05 Fair CLR 24.8 17.8 65% 26 75.41 0.0
05 08:55 SW 22 8.05 Fair CLR 23.9 17.7 68% 25 75.39 0.0
05 08:35 SW 20 G 26 8.05 Fair CLR 23.5 17.5 69% 75.39 0.0
05 08:15 SW 17 8.05 Fair CLR 22.6 17.5 73% 75.39 0.0
05 07:55 SW 13 G 30 8.05 Fair CLR 22.4 17.3 73% 75.36 0.0
05 07:35 SW 15 8.05 Fair CLR 22 17.2 74% 75.31 0.0
05 07:15 SW 19 G 26 8.05 Fair CLR 21.6 17 75% 75.31 0.0
05 06:55 SW 20 G 33 8.05 Fair CLR 21.8 17 24 21.8 74% 75.31 0.0
05 06:35 SW 20 G 33 11.27 Fair CLR 22 17 73% 75.29 0.0
05 06:15 SW 20 G 35 11.27 Fair CLR 22.1 17 73% 75.29 0.0
05 05:55 SW 20 G 33 11.27 Fair CLR 22.3 17 72% 75.29 0.0
05 05:35 SW 26 G 35 11.27 Fair CLR 22.5 17 71% 75.29 0.0
05 05:15 SW 28 G 35 8.05 Fair CLR 22.6 17 71% 75.29 0.0
05 04:55 SW 28 G 37 11.27 Fair CLR 22.6 17 71% 75.29 0.0
05 04:35 SW 28 8.05 Fair CLR 22.8 17 70% 75.29 0.0
05 04:15 SW 30 G 39 11.27 Fair CLR 23 17 69% 75.29 0.0
05 03:55 SW 24 G 33 11.27 Fair CLR 23 17.1 70% 75.31 0.0
05 03:35 SW 19 G 30 11.27 Fair CLR 22.7 17.1 71% 75.34 0.0
05 03:15 SW 19 11.27 Fair CLR 22.6 17.1 71% 75.34 0.0
05 02:55 SW 19 8.05 Fair CLR 22.7 17.1 71% 75.34 0.0
05 02:35 SW 15 11.27 Fair CLR 23 17.1 70% 75.36 0.0
05 02:15 SW 22 G 31 11.27 Fair CLR 23.1 17.2 70% 75.39 0.0
05 01:55 SW 20 G 28 11.27 Fair CLR 23.3 17.2 69% 75.39 0.0
05 01:35 S 22 G 35 11.27 Fair CLR 23.5 17.1 67% 75.41 0.0
05 01:15 S 20 G 31 8.05 Fair CLR 23.6 17 67% 75.41 0.0
05 00:55 S 24 G 35 11.27 Fair CLR 24 17 28.2 24 65% 25 75.41 0.0
05 00:35 S 22 11.27 Fair CLR 24 17 65% 25 75.41 0.0
05 00:15 S 24 G 33 11.27 Fair CLR 24.5 17 63% 26 75.41 0.0
04 23:55 S 26 G 37 11.27 Fair CLR 24.8 17 62% 26 75.41 0.0
04 23:35 S 28 G 37 11.27 Fair CLR 25.1 17 61% 26 75.41 0.0
04 23:15 S 22 G 41 11.27 Fair CLR 25.4 17 60% 26 75.41 0.0
04 22:55 S 24 G 35 11.27 Fair CLR 25.6 17.1 59% 27 75.39 0.0
04 22:35 S 22 G 33 16.09 Fair CLR 25.6 17.2 60% 27 75.39 0.0
04 22:15 S 22 G 33 11.27 Fair CLR 25.8 17.2 59% 27 75.39 0.0
04 21:55 S 22 G 37 16.09 Fair CLR 26.2 17.2 58% 27 75.36 0.0
04 21:35 S 26 G 37 16.09 Fair CLR 26.5 17.1 56% 27 75.34 0.0
04 21:15 S 22 16.09 Fair CLR 26.6 17 56% 27 75.36 0.0
04 20:55 S 17 16.09 Fair CLR 27 17 54% 28 75.34 0.0
04 20:35 S 19 16.09 Fair CLR 27 17.2 55% 28 75.34 0.0
04 20:15 S 15 11.27 Fair CLR 27.2 17.1 54% 28 75.34 0.0
04 19:55 S 13 8.05 Fair CLR 27.7 16.7 51% 28 75.34 0.0
04 19:35 S 17 G 26 8.05 Fair CLR 28 17 51% 29 75.36 0.0
04 19:15 S 13 11.27 Fair CLR 28 17 51% 29 75.36 0.0
04 18:55 S 20 G 31 8.05 Fair CLR 28.2 16.8 30.9 27.8 50% 29 75.39 0.0
04 18:35 S 30 G 35 8.05 Fair CLR 28.8 16.5 47% 29 75.41 0.0
04 18:15 S 20 G 30 8.05 Fair CLR 29 16.8 48% 29 75.39 0.0
04 17:55 S 22 G 30 6.44 Fair CLR 28.6 16.8 49% 29 75.41 0.0
04 17:35 SW 24 G 33 8.05 Fair CLR 29 16.1 46% 29 75.46 0.0
04 17:15 S 22 G 33 8.05 Fair CLR 29.6 16.3 45% 30 75.46 0.0
04 16:55 S 24 G 31 8.05 Fair CLR 29.6 16.2 44% 30 75.46 0.0
04 16:35 S 24 G 37 8.05 Fair CLR 29.8 16 43% 30 75.46 0.0
04 16:15 S 22 G 39 8.05 Fair CLR 30.3 16 42% 30 75.49 0.0
04 15:55 S 22 G 31 8.05 Fair CLR 30 15.8 42% 30 75.51 0.0
04 15:35 S 20 G 28 8.05 Fair CLR 30.3 15.5 41% 30 75.57 0.0
04 15:15 SW 19 G 28 8.05 Fair CLR 30.4 16 42% 30 75.59 0.0
04 14:55 S 19 G 31 8.05 Fair CLR 29.8 15.6 42% 30 75.62 0.0
04 14:35 S 15 8.05 Fair CLR 29.2 15.7 44% 29 75.64 0.0
04 14:15 S 22 G 28 8.05 Fair CLR 29.7 15.6 42% 30 75.67 0.0
04 13:55 SW 24 8.05 Fair CLR 28.6 15.3 44% 29 75.69 0.0
04 13:35 S 26 G 31 8.05 Fair CLR 28.4 15.2 45% 28 75.72 0.0
04 13:15 SW 15 G 31 8.05 Fair CLR 27.9 14.8 45% 28 75.72 0.0
04 12:55 SW 22 G 31 11.27 Fair CLR 27.6 15.1 27.6 16.4 46% 28 75.74 0.0
04 12:35 S 24 G 31 8.05 Fair CLR 27 14.9 48% 27 75.77 0.0
04 12:15 SW 20 8.05 Fair CLR 26.6 14.7 48% 27 75.79 0.0
04 11:55 S 22 8.05 Fair CLR 25.6 14.5 50% 26 75.82 0.0
04 11:35 S 22 11.27 Fair CLR 25.4 14.4 51% 26 75.84 0.0
04 11:15 SW 22 G 33 16.09 Fair CLR 24.4 14 52% 26 75.84 0.0
04 10:55 S 19 G 30 8.05 Fair CLR 23.8 14 54% 75.87 0.0
04 10:35 SW 24 8.05 Fair CLR 23 13.8 56% 75.9 0.0
04 10:15 SW 26 8.05 Fair CLR 22.3 13.6 58% 75.9 0.0
04 09:55 SW 24 6.44 Fair CLR 21.6 13.6 61% 75.9 0.0
04 09:35 S 26 G 39 11.27 Fair CLR 20.9 13.5 63% 75.9 0.0
04 09:15 S 26 G 35 11.27 Fair CLR 19.8 13.2 66% 75.9 0.0
04 08:55 SW 19 G 35 8.05 Fair CLR 19.1 13 68% 75.87 0.0
04 08:35 S 28 G 33 8.05 Fair CLR 18.3 12.5 69% 75.87 0.0
04 08:15 S 22 G 30 8.05 Fair CLR 17.5 12.2 71% 75.87 0.0
04 07:55 S 22 G 33 6.44 Fair CLR 17 11.8 72% 75.87 0.0
04 07:35 S 15 8.05 Fair CLR 16.6 11.5 72% 75.84 0.0
04 07:15 S 15 6.44 Fair CLR 16.5 11 70% 75.84 0.0
04 06:55 S 15 6.44 Fair CLR 16.3 10.7 17 14.7 70% 75.84 0.0
04 06:35 S 15 8.05 Fair CLR 16.5 10.5 68% 75.84 0.0
04 06:15 S 15 8.05 Fair CLR 16.4 10 66% 75.84 0.0
04 05:55 S 17 11.27 Fair CLR 16.5 9.6 64% 75.84 0.0
04 05:35 S 15 11.27 Fair CLR 16.6 9.5 63% 75.87 0.0
04 05:15 S 17 11.27 Fair CLR 17 9.2 60% 75.87 0.0
04 04:55 S 17 11.27 Fair CLR 16.8 9 60% 75.9 0.0
04 04:35 S 17 11.27 Fair CLR 16.5 9.2 62% 75.9 0.0
04 04:15 S 13 8.05 Fair CLR 15.2 9.4 69% 75.92 0.0
04 03:55 S 11 11.27 Fair CLR 14.8 9.5 71% 75.92 0.0
04 03:35 S 9 11.27 Fair CLR 15.7 9.2 65% 75.95 0.0
04 03:15 S 11 11.27 Fair CLR 15.9 9.2 65% 75.97 0.0
04 02:55 S 13 11.27 Fair CLR 15.8 9.2 65% 75.97 0.0
04 02:35 S 11 11.27 Fair CLR 16.3 9 62% 76 0.0
04 02:15 S 13 11.27 Fair CLR 16.7 9 61% 76.02 0.0
04 01:55 S 15 11.27 Fair CLR 16.8 8.9 60% 76.05 0.0
04 01:35 S 11 11.27 Fair CLR 17 8.7 58% 76.05 0.0
04 01:15 S 11 11.27 Fair CLR 16.7 8.7 59% 76.07 0.0
04 00:55 S 11 11.27 Fair CLR 16.9 8.7 25.2 16.9 59% 76.1 0.0
04 00:35 S 13 11.27 Fair CLR 17.2 8.6 57% 76.1 0.0
04 00:15 S 13 11.27 Fair CLR 17.6 8.6 56% 76.1 0.0
03 23:55 SE 13 11.27 Fair CLR 17.5 8.5 56% 76.12 0.0
03 23:35 S 11 11.27 Fair CLR 17.6 8.3 55% 76.15 0.0
03 23:15 S 9 11.27 Fair CLR 17.6 8.5 55% 76.15 0.0
03 22:55 S 9 8.05 Fair CLR 18 8.3 53% 76.17 0.0
03 22:35 SE 9 11.27 Fair CLR 18.1 8.1 52% 76.17 0.0
03 22:15 SE 9 11.27 Fair CLR 18.5 8.3 52% 76.15 0.0
03 21:55 SE 11 11.27 Fair CLR 18.8 8 50% 76.15 0.0
03 21:35 SE 9 11.27 Fair CLR 19.6 7.7 46% 76.15 0.0
03 21:15 S 9 11.27 Fair CLR 20.1 7.8 45% 76.12 0.0
03 20:55 S 9 11.27 Fair CLR 21.1 7.3 41% 76.12 0.0
03 20:35 S 13 11.27 Fair CLR 22.2 7 38% 76.12 0.0
03 20:15 S 11 6.44 Fair CLR 22.8 7.1 36% 76.12 0.0
03 19:55 S 15 8.05 Fair CLR 23.5 7.1 35% 76.12 0.0
03 19:35 S 15 G 28 8.05 Fair CLR 24.3 6.8 33% 25 76.12 0.0
03 19:15 S 15 8.05 Fair CLR 24.6 6.1 31% 25 76.15 0.0
03 18:55 S 17 11.27 Fair CLR 24.8 5.5 27.5 24.8 29% 25 76.15 0.0
03 18:35 S 17 16.09 Fair CLR 25.3 5.5 28% 25 76.15 0.0
03 18:15 S 20 G 28 16.09 Fair CLR 25.7 5.3 27% 26 76.17 0.0
03 17:55 S 24 G 33 16.09 Fair CLR 25.6 5 27% 26 76.2 0.0
03 17:35 SW 19 G 28 16.09 Fair CLR 27 6.6 27% 26 76.2 0.0
03 17:15 SW 19 G 33 16.09 Fair CLR 27 5.3 25% 26 76.23 0.0
03 16:55 S 22 G 28 16.09 Fair CLR 26.9 6.7 28% 26 76.23 0.0
03 16:35 S 19 G 31 16.09 Fair CLR 27.4 6.4 26% 27 76.25 0.0
03 16:15 S 24 G 30 16.09 Fair CLR 26.8 6.5 27% 26 76.28 0.0
03 15:55 S 20 G 33 16.09 Fair CLR 27 6.2 27% 26 76.33 0.0
03 15:35 S 17 G 33 16.09 Fair CLR 27.3 6 26% 26 76.35 0.0
03 15:15 S 19 G 33 16.09 Fair CLR 26.9 4.7 24% 26 76.38 0.0
03 14:55 S 19 G 31 16.09 Fair CLR 26.9 5.4 25% 26 76.4 0.0
03 14:35 S 22 G 31 16.09 Fair CLR 27.1 6.2 26% 26 76.43 0.0
03 14:15 SW 26 G 31 16.09 Fair CLR 26.9 6.3 27% 26 76.45 0.0
03 13:55 S 19 G 28 16.09 Fair CLR 26.8 6.2 27% 26 76.48 0.0
03 13:35 S 26 16.09 Fair CLR 26.2 7.1 30% 26 76.48 0.0
03 13:15 SW 15 G 30 16.09 Partly Cloudy SCT075 26.5 7.3 30% 26 76.53 0.0
03 12:55 SW 24 G 30 16.09 Fair CLR 26.1 7.1 26.1 11 30% 26 76.56 0.0
03 12:35 SW 19 11.27 Fair CLR 25.5 8 33% 26 76.58 0.0
03 12:15 SW 19 G 30 8.05 Fair CLR 25.4 8.9 35% 26 76.61 0.0
03 11:55 W 20 6.44 Fair CLR 25 8.6 35% 26 76.63 0.0
03 11:35 SW 19 G 26 8.05 Fair CLR 24.6 9.1 37% 25 76.63 0.0
03 11:15 SW 24 G 31 16.09 Fair CLR 24.1 8.6 37% 25 76.66 0.0
03 10:55 SW 24 G 30 16.09 Fair CLR 23.6 8.9 39% 76.66 0.0
03 10:35 Calm 16.09 Fair CLR 23 8.9 41% 76.66 0.0
03 10:15 Calm 8.05 Fair CLR 22.2 8.8 42% 76.66 0.0
03 09:55 Calm 11.27 Fair CLR 21.6 8.8 44% 76.66 0.0
03 09:35 Calm 6.44 Fair CLR 20.6 9 48% 76.66 0.0
03 09:15 Calm 8.05 Fair CLR 19.1 9.7 55% 76.66 0.0
03 08:55 Calm 8.05 Fair CLR 18 9.2 57% 76.63 0.0
03 08:35 Calm 6.44 Fair CLR 16.6 8.5 59% 76.63 0.0
03 08:15 Calm 11.27 Fair CLR 15.7 8.5 62% 76.63 0.0
03 07:55 Calm 8.05 Fair CLR 13.7 8.7 72% 76.63 0.0
03 07:35 Calm 8.05 Fair CLR 12.5 7.8 73% 76.61 0.0
03 07:15 Calm 8.05 Fair CLR 11.7 7.5 76% 76.58 0.0
03 06:55 Calm 8.05 Fair CLR 11 7.4 16.6 10.6 79% 76.56 0.0
03 06:35 Calm 11.27 Fair CLR 11.4 7.3 76% 76.56 0.0
03 06:15 Calm 11.27 Fair CLR 12 7.6 75% 76.53 0.0
03 05:55 Calm 8.05 Fair CLR 11.6 7.8 78% 76.53 0.0
03 05:35 Calm 11.27 Fair CLR 11.5 7.8 78% 76.53 0.0
03 05:15 Calm 8.05 Fair CLR 10.7 7.9 83% 76.53 0.0
03 04:55 Calm 11.27 Fair CLR 11.5 8 79% 76.53 0.0
03 04:35 Calm 11.27 Fair CLR 11.1 8 81% 76.53 0.0
03 04:15 Calm 11.27 Fair CLR 11.6 8 79% 76.53 0.0
03 03:55 Calm 8.05 Fair CLR 12.1 8 76% 76.53 0.0
03 03:35 Calm 11.27 Fair CLR 12.5 8 74% 76.53 0.0
03 03:15 Calm 11.27 Fair CLR 12.6 7.9 73% 76.53 0.0
03 02:55 Calm 11.27 Fair CLR 13.3 8 71% 76.53 0.0
03 02:35 Calm 11.27 Fair CLR 13.5 8 70% 76.53 0.0
03 02:15 Calm 11.27 Fair CLR 15 7.8 62% 76.56 0.0
03 01:55 Calm 8.05 Fair CLR 15.3 7.7 61% 76.56 0.0
Date Time (cdt) Wind (kph) Vis. (km) Weather Sky Cond. Air Dwpt Max. Min. Relative Humidity Wind Chill (°C) Heat Index (°C) altimeter (cm) sea level (mb) 1 hr 3 hr 6 hr
6 hour
Temperature (ºC) Pressure Precipitation (cm)